createdAt,value
2022-07-25T00:01:45.652Z,75.90
2022-07-25T00:04:14.343Z,76.20
2022-07-25T00:06:42.609Z,76.30
2022-07-25T00:09:10.054Z,76.50
2022-07-25T00:11:37.003Z,76.50
2022-07-25T00:14:04.816Z,76.60
2022-07-25T00:16:32.121Z,76.50
2022-07-25T00:18:59.600Z,76.50
2022-07-25T00:21:26.519Z,77.30
2022-07-25T00:23:53.276Z,76.70
2022-07-25T00:26:19.996Z,76.70
2022-07-25T00:28:46.701Z,76.70
2022-07-25T00:31:13.533Z,76.80
2022-07-25T00:33:41.230Z,76.90
2022-07-25T00:36:09.053Z,76.90
2022-07-25T00:38:36.192Z,77.00
2022-07-25T00:41:03.897Z,77.00
2022-07-25T00:43:30.901Z,77.00
2022-07-25T00:45:58.745Z,77.10
2022-07-25T00:48:27.391Z,77.20
2022-07-25T00:50:55.594Z,77.30
2022-07-25T00:53:23.899Z,77.50
2022-07-25T00:55:51.324Z,77.70
2022-07-25T00:58:18.881Z,78.60
2022-07-25T01:00:46.128Z,78.20
2022-07-25T01:03:13.120Z,78.30
2022-07-25T01:05:40.057Z,78.40
2022-07-25T01:08:07.456Z,78.60
2022-07-25T01:10:34.704Z,78.70
2022-07-25T01:13:01.514Z,78.90
2022-07-25T01:15:28.519Z,79.20
2022-07-25T01:17:55.521Z,79.20
2022-07-25T01:20:24.103Z,79.40
2022-07-25T01:22:51.457Z,79.50
2022-07-25T01:25:19.443Z,79.60
2022-07-25T01:27:52.730Z,79.70
2022-07-25T01:30:22.472Z,79.90
2022-07-25T01:32:49.305Z,80.00
2022-07-25T01:35:16.265Z,80.10
2022-07-25T01:37:45.472Z,80.20
2022-07-25T01:40:13.794Z,80.40
2022-07-25T01:42:40.686Z,80.50
2022-07-25T01:45:08.138Z,80.50
2022-07-25T01:47:34.927Z,80.50
2022-07-25T01:50:01.714Z,80.50
2022-07-25T01:52:28.438Z,80.60
2022-07-25T01:54:55.212Z,80.70
2022-07-25T01:57:23.357Z,80.80
2022-07-25T01:59:57.352Z,80.90
2022-07-25T02:02:24.055Z,81.00
2022-07-25T02:04:50.847Z,81.10
2022-07-25T02:07:17.682Z,81.20
2022-07-25T02:09:44.402Z,81.40
2022-07-25T02:12:11.292Z,81.40
2022-07-25T02:14:38.193Z,81.70
2022-07-25T02:17:05.108Z,81.90
2022-07-25T02:19:32.145Z,82.00
2022-07-25T02:21:59.029Z,82.10
2022-07-25T02:24:25.932Z,82.20
2022-07-25T02:26:52.676Z,82.30
2022-07-25T02:29:19.368Z,82.50
2022-07-25T02:31:49.003Z,82.70
2022-07-25T02:34:15.737Z,82.90
2022-07-25T02:36:42.429Z,82.90
2022-07-25T02:39:09.144Z,83.20
2022-07-25T02:41:35.907Z,83.30
2022-07-25T02:44:02.952Z,83.60
2022-07-25T02:46:29.784Z,84.00
2022-07-25T02:48:56.637Z,84.20
2022-07-25T02:51:23.496Z,84.30
2022-07-25T02:53:57.772Z,84.40
2022-07-25T02:56:26.317Z,84.50
2022-07-25T02:58:56.718Z,84.50
2022-07-25T03:01:23.519Z,84.70
2022-07-25T03:03:50.666Z,84.70
2022-07-25T03:06:18.277Z,84.90
2022-07-25T03:08:45.228Z,85.00
2022-07-25T03:11:13.694Z,85.00
2022-07-25T03:13:40.558Z,85.10
2022-07-25T03:16:07.818Z,85.10
2022-07-25T03:18:34.616Z,85.20
2022-07-25T03:21:01.426Z,85.30
2022-07-25T03:23:28.464Z,85.40
2022-07-25T03:25:56.090Z,85.40
2022-07-25T03:28:24.632Z,85.40
2022-07-25T03:30:52.132Z,85.40
2022-07-25T03:33:18.949Z,85.60
2022-07-25T03:35:45.785Z,85.80
2022-07-25T03:38:12.546Z,85.90
2022-07-25T03:40:39.564Z,85.90
2022-07-25T03:43:06.716Z,85.90
2022-07-25T03:45:33.563Z,86.00
2022-07-25T03:48:00.373Z,86.10
2022-07-25T03:50:27.170Z,86.30
2022-07-25T03:52:53.928Z,86.30
2022-07-25T03:55:20.703Z,86.70
2022-07-25T03:57:47.475Z,86.60
2022-07-25T04:00:15.573Z,86.60
2022-07-25T04:02:42.483Z,86.80
2022-07-25T04:05:10.152Z,86.90
2022-07-25T04:07:38.223Z,87.00
2022-07-25T04:10:06.907Z,87.10
2022-07-25T04:12:33.742Z,87.30
2022-07-25T04:15:00.542Z,87.40
2022-07-25T04:17:27.293Z,87.40
2022-07-25T04:19:54.107Z,87.30
2022-07-25T04:22:22.225Z,87.20
2022-07-25T04:24:48.996Z,87.10
2022-07-25T04:27:15.751Z,87.20
2022-07-25T04:29:42.498Z,87.10
2022-07-25T04:32:09.341Z,87.10
2022-07-25T04:34:36.104Z,87.20
2022-07-25T04:37:02.870Z,87.20
2022-07-25T04:39:29.608Z,87.30
2022-07-25T04:41:56.446Z,87.30
2022-07-25T04:44:23.272Z,87.40
2022-07-25T04:46:50.002Z,87.50
2022-07-25T04:49:16.854Z,87.50
2022-07-25T04:51:43.712Z,87.50
2022-07-25T04:54:10.567Z,87.50
2022-07-25T04:56:37.373Z,87.60
2022-07-25T04:59:06.867Z,88.00
2022-07-25T05:01:34.932Z,88.10
2022-07-25T05:04:02.144Z,88.20
2022-07-25T05:06:28.922Z,88.40
2022-07-25T05:08:55.813Z,88.40
2022-07-25T05:11:22.603Z,88.50
2022-07-25T05:13:49.406Z,88.50
2022-07-25T05:16:16.283Z,88.50
2022-07-25T05:18:43.163Z,88.50
2022-07-25T05:21:14.188Z,88.60
2022-07-25T05:23:41.177Z,88.70
2022-07-25T05:26:08.200Z,88.80
2022-07-25T05:28:35.144Z,88.80
2022-07-25T05:31:02.111Z,88.80
2022-07-25T05:33:28.913Z,88.80
2022-07-25T05:35:55.737Z,88.90
2022-07-25T05:38:22.507Z,88.90
2022-07-25T05:40:52.036Z,88.90
2022-07-25T05:43:19.659Z,88.90
2022-07-25T05:45:47.533Z,88.80
2022-07-25T05:48:15.165Z,88.60
2022-07-25T05:50:42.014Z,88.50
2022-07-25T05:53:08.766Z,88.40
2022-07-25T05:55:35.623Z,88.30
2022-07-25T05:58:07.554Z,88.10
2022-07-25T06:00:34.336Z,87.80
2022-07-25T06:03:01.206Z,87.60
2022-07-25T06:05:28.394Z,87.30
2022-07-25T06:07:55.332Z,87.00
2022-07-25T06:10:23.292Z,86.90
2022-07-25T06:12:50.096Z,86.60
2022-07-25T06:15:22.300Z,86.40
2022-07-25T06:17:49.952Z,86.30
2022-07-25T06:20:17.286Z,86.40
2022-07-25T06:22:44.088Z,86.30
2022-07-25T06:25:11.020Z,86.00
2022-07-25T06:27:38.602Z,85.60
2022-07-25T06:30:18.641Z,85.40
2022-07-25T06:32:47.317Z,85.20
2022-07-25T06:35:14.237Z,84.90
2022-07-25T06:37:41.416Z,84.70
2022-07-25T06:40:09.136Z,84.50
2022-07-25T06:42:40.308Z,84.20
2022-07-25T06:45:11.866Z,83.90
2022-07-25T06:47:40.348Z,83.70
2022-07-25T06:50:11.294Z,83.50
2022-07-25T06:52:39.915Z,83.40
2022-07-25T06:55:08.527Z,83.10
2022-07-25T06:57:36.337Z,82.90
2022-07-25T07:00:09.652Z,82.80
2022-07-25T07:02:49.809Z,82.70
2022-07-25T07:05:16.818Z,82.30
2022-07-25T07:07:47.556Z,82.00
2022-07-25T07:10:15.759Z,82.40
2022-07-25T07:12:42.810Z,81.30
2022-07-25T07:15:10.236Z,81.00
2022-07-25T07:17:37.647Z,80.80
2022-07-25T07:20:06.652Z,80.60
2022-07-25T07:22:43.054Z,80.30
2022-07-25T07:25:10.491Z,80.10
2022-07-25T07:27:38.739Z,79.70
2022-07-25T07:30:06.412Z,79.40
2022-07-25T07:32:34.398Z,79.00
2022-07-25T07:35:02.110Z,78.90
2022-07-25T07:37:36.607Z,78.90
2022-07-25T07:40:06.669Z,79.00
2022-07-25T07:42:42.846Z,79.10
2022-07-25T07:45:24.437Z,78.90
2022-07-25T07:47:53.568Z,78.80
2022-07-25T07:50:26.308Z,78.70
2022-07-25T07:52:55.392Z,78.70
2022-07-25T07:55:41.763Z,78.50
2022-07-25T07:58:09.255Z,78.10
2022-07-25T08:00:39.284Z,78.00
2022-07-25T08:03:09.296Z,78.00
2022-07-25T08:05:43.078Z,77.70
2022-07-25T08:08:12.846Z,77.40
2022-07-25T08:10:42.989Z,77.20
2022-07-25T08:13:21.342Z,76.90
2022-07-25T08:15:51.788Z,76.80
2022-07-25T08:18:20.777Z,77.30
2022-07-25T08:20:49.081Z,76.30
2022-07-25T08:23:18.001Z,75.90
2022-07-25T08:25:46.181Z,75.60
2022-07-25T08:28:14.651Z,75.10
2022-07-25T08:30:42.945Z,74.80
2022-07-25T08:33:13.979Z,74.50
2022-07-25T08:35:46.546Z,74.30
2022-07-25T08:38:13.670Z,74.10
2022-07-25T08:40:41.897Z,73.80
2022-07-25T08:43:13.094Z,73.40
2022-07-25T08:45:49.933Z,73.10
2022-07-25T08:48:23.943Z,72.70
2022-07-25T08:50:52.115Z,72.30
2022-07-25T08:53:37.159Z,72.20
2022-07-25T08:56:20.480Z,72.10
2022-07-25T08:58:49.799Z,71.90
2022-07-25T09:01:17.300Z,71.70
2022-07-25T09:03:45.025Z,71.30
2022-07-25T09:06:23.126Z,70.80
2022-07-25T09:08:57.826Z,70.40
2022-07-25T09:11:34.127Z,70.10
2022-07-25T09:14:09.158Z,69.80
2022-07-25T09:16:44.471Z,69.30
2022-07-25T09:19:20.481Z,68.70
2022-07-25T09:22:10.338Z,68.40
2022-07-25T09:24:44.799Z,68.20
2022-07-25T09:27:13.085Z,67.90
2022-07-25T09:29:42.743Z,67.70
2022-07-25T09:32:21.517Z,67.60
2022-07-25T09:34:50.908Z,67.60
2022-07-25T09:37:25.457Z,67.40
2022-07-25T09:39:52.919Z,67.10
2022-07-25T09:42:29.867Z,67.10
2022-07-25T09:45:05.752Z,67.00
2022-07-25T09:47:36.704Z,66.90
2022-07-25T09:50:06.604Z,66.80
2022-07-25T09:52:35.870Z,66.20
2022-07-25T09:55:06.502Z,66.30
2022-07-25T09:57:34.167Z,65.90
2022-07-25T10:00:02.231Z,65.70
2022-07-25T10:02:48.895Z,65.40
2022-07-25T10:05:40.044Z,65.50
2022-07-25T10:08:09.005Z,64.90
2022-07-25T10:10:43.495Z,64.80
2022-07-25T10:13:15.390Z,64.90
2022-07-25T10:15:47.821Z,64.40
2022-07-25T10:18:16.325Z,64.20
2022-07-25T10:20:45.345Z,63.80
2022-07-25T10:23:19.989Z,63.30
2022-07-25T10:25:49.126Z,63.00
2022-07-25T10:28:20.269Z,63.00
2022-07-25T10:30:47.739Z,62.70
2022-07-25T10:33:19.369Z,62.50
2022-07-25T10:35:46.140Z,62.30
2022-07-25T10:38:13.309Z,62.00
2022-07-25T10:40:44.049Z,61.40
2022-07-25T10:43:22.395Z,60.60
2022-07-25T10:45:52.303Z,60.00
2022-07-25T10:48:27.234Z,60.10
2022-07-25T10:51:03.779Z,59.90
2022-07-25T10:53:32.263Z,60.00
2022-07-25T10:56:10.238Z,60.20
2022-07-25T10:58:46.077Z,59.80
2022-07-25T11:01:16.308Z,59.60
2022-07-25T11:03:47.297Z,59.30
2022-07-25T11:06:15.573Z,58.90
2022-07-25T11:08:44.097Z,58.60
2022-07-25T11:11:12.304Z,58.40
2022-07-25T11:13:42.694Z,58.20
2022-07-25T11:16:10.500Z,57.90
2022-07-25T11:18:40.345Z,57.90
2022-07-25T11:21:08.993Z,57.60
2022-07-25T11:23:36.819Z,57.60
2022-07-25T11:26:14.660Z,57.40
2022-07-25T11:28:46.298Z,57.10
2022-07-25T11:31:15.803Z,57.00
2022-07-25T11:33:47.971Z,56.90
2022-07-25T11:36:16.951Z,57.00
2022-07-25T11:38:51.016Z,57.00
2022-07-25T11:41:29.629Z,56.70
2022-07-25T11:43:57.458Z,56.50
2022-07-25T11:46:24.357Z,56.80
2022-07-25T11:48:51.409Z,55.70
2022-07-25T11:51:19.650Z,55.40
2022-07-25T11:53:49.795Z,55.30
2022-07-25T11:56:41.465Z,55.50
2022-07-25T11:59:07.757Z,55.60
2022-07-25T12:01:37.538Z,55.70
2022-07-25T12:04:16.050Z,55.90
2022-07-25T12:06:45.720Z,56.10
2022-07-25T12:09:21.368Z,56.30
2022-07-25T12:11:50.445Z,56.40
2022-07-25T12:14:17.866Z,56.40
2022-07-25T12:16:45.128Z,56.40
2022-07-25T12:19:20.578Z,56.20
2022-07-25T12:21:49.243Z,55.70
2022-07-25T12:24:16.429Z,55.30
2022-07-25T12:26:43.444Z,54.90
2022-07-25T12:29:10.820Z,54.40
2022-07-25T12:31:39.160Z,53.90
2022-07-25T12:34:06.987Z,53.40
2022-07-25T12:36:38.393Z,53.20
2022-07-25T12:39:06.358Z,52.70
2022-07-25T12:41:34.159Z,52.40
2022-07-25T12:44:02.773Z,52.00
2022-07-25T12:46:30.289Z,51.60
2022-07-25T12:48:57.346Z,51.50
2022-07-25T12:51:24.793Z,51.50
2022-07-25T12:53:51.513Z,51.70
2022-07-25T12:56:18.757Z,51.70
2022-07-25T12:58:45.795Z,51.70
2022-07-25T13:01:14.044Z,51.70
2022-07-25T13:03:40.924Z,51.80
2022-07-25T13:06:08.687Z,51.90
2022-07-25T13:08:37.992Z,52.20
2022-07-25T13:11:05.167Z,52.30
2022-07-25T13:13:32.047Z,52.50
2022-07-25T13:16:00.165Z,52.60
2022-07-25T13:18:29.109Z,53.40
2022-07-25T13:20:56.601Z,53.00
2022-07-25T13:23:24.676Z,53.30
2022-07-25T13:25:52.681Z,53.60
2022-07-25T13:28:19.691Z,53.80
2022-07-25T13:30:48.991Z,54.20
2022-07-25T13:33:16.863Z,54.60
2022-07-25T13:35:44.419Z,55.20
2022-07-25T13:38:12.351Z,55.80
2022-07-25T13:40:44.875Z,56.10
2022-07-25T13:43:13.897Z,56.50
2022-07-25T13:45:43.987Z,56.70
2022-07-25T13:48:28.856Z,56.80
2022-07-25T13:50:58.312Z,56.70
2022-07-25T13:53:29.949Z,56.50
2022-07-25T13:55:59.117Z,56.50
2022-07-25T13:58:26.550Z,56.70
2022-07-25T14:00:54.243Z,56.40
2022-07-25T14:03:22.460Z,56.00
2022-07-25T14:05:49.700Z,55.60
2022-07-25T14:08:17.078Z,55.40
2022-07-25T14:10:44.231Z,55.00
2022-07-25T14:13:13.128Z,54.80
2022-07-25T14:15:40.815Z,54.30
2022-07-25T14:18:07.946Z,53.90
2022-07-25T14:20:35.741Z,53.60
2022-07-25T14:23:03.171Z,53.30
2022-07-25T14:25:30.327Z,53.10
2022-07-25T14:27:59.626Z,53.20
2022-07-25T14:30:27.360Z,53.30
2022-07-25T14:32:55.642Z,53.20
2022-07-25T14:35:23.182Z,53.00
2022-07-25T14:37:51.029Z,53.00
2022-07-25T14:40:18.698Z,52.80
2022-07-25T14:42:46.001Z,52.70
2022-07-25T14:45:13.561Z,52.80
2022-07-25T14:47:42.598Z,52.90
2022-07-25T14:50:11.163Z,52.90
2022-07-25T14:52:39.436Z,52.80
2022-07-25T14:55:07.458Z,52.50
2022-07-25T14:57:34.669Z,52.50
2022-07-25T15:00:04.914Z,52.50
2022-07-25T15:02:32.681Z,52.60
2022-07-25T15:04:59.654Z,53.10
2022-07-25T15:07:26.627Z,53.50
2022-07-25T15:09:53.625Z,53.80
2022-07-25T15:12:21.144Z,54.00
2022-07-25T15:14:48.319Z,53.90
2022-07-25T15:17:15.117Z,53.90
2022-07-25T15:19:41.965Z,53.60
2022-07-25T15:22:09.137Z,53.20
2022-07-25T15:25:04.414Z,52.90
2022-07-25T15:27:22.878Z,52.40
2022-07-25T15:29:50.263Z,52.00
2022-07-25T15:32:17.617Z,51.60
2022-07-25T15:34:45.443Z,51.50
2022-07-25T15:37:12.601Z,51.50
2022-07-25T15:39:39.610Z,51.40
2022-07-25T15:42:06.491Z,51.50
2022-07-25T15:44:33.526Z,51.30
2022-07-25T15:47:00.476Z,51.20
2022-07-25T15:49:27.355Z,51.00
2022-07-25T15:51:56.308Z,50.90
2022-07-25T15:54:26.386Z,50.90
2022-07-25T15:56:56.615Z,51.10
2022-07-25T15:59:24.008Z,51.20
2022-07-25T16:01:51.802Z,51.40
2022-07-25T16:04:19.581Z,51.60
2022-07-25T16:06:47.158Z,51.80
2022-07-25T16:09:16.352Z,52.00
2022-07-25T16:11:43.698Z,52.20
2022-07-25T16:14:11.538Z,52.40
2022-07-25T16:16:39.726Z,52.50
2022-07-25T16:19:08.876Z,52.60
2022-07-25T16:21:36.042Z,52.40
2022-07-25T16:24:04.639Z,52.00
2022-07-25T16:26:31.649Z,51.70
2022-07-25T16:28:58.766Z,51.60
2022-07-25T16:31:26.683Z,51.60
2022-07-25T16:33:53.638Z,51.90
2022-07-25T16:36:20.554Z,52.30
2022-07-25T16:38:49.375Z,52.60
2022-07-25T16:41:16.328Z,52.80
2022-07-25T16:43:44.403Z,53.00
2022-07-25T16:46:11.958Z,53.70
2022-07-25T16:48:39.329Z,53.80
2022-07-25T16:51:07.192Z,54.80
2022-07-25T16:53:35.954Z,55.70
2022-07-25T16:56:04.483Z,56.30
2022-07-25T16:58:31.966Z,57.00
2022-07-25T17:00:59.017Z,57.50
2022-07-25T17:03:26.192Z,58.10
2022-07-25T17:05:54.032Z,58.50
2022-07-25T17:08:20.878Z,58.90
2022-07-25T17:10:48.815Z,59.20
2022-07-25T17:13:15.742Z,59.50
2022-07-25T17:15:44.045Z,59.80
2022-07-25T17:18:11.156Z,60.00
2022-07-25T17:20:38.060Z,60.30
2022-07-25T17:23:04.834Z,60.70
2022-07-25T17:25:31.793Z,61.00
2022-07-25T17:27:58.727Z,61.40
2022-07-25T17:30:25.961Z,61.60
2022-07-25T17:32:53.371Z,61.90
2022-07-25T17:35:20.567Z,62.20
2022-07-25T17:37:47.427Z,62.50
2022-07-25T17:40:14.268Z,62.60
2022-07-25T17:42:45.124Z,62.80
2022-07-25T17:45:12.538Z,63.00
2022-07-25T17:47:39.727Z,63.20
2022-07-25T17:50:06.888Z,63.50
2022-07-25T17:52:33.693Z,63.70
2022-07-25T17:55:00.582Z,64.00
2022-07-25T17:57:28.218Z,64.20
2022-07-25T17:59:55.046Z,64.50
2022-07-25T18:02:21.845Z,64.60
2022-07-25T18:04:48.721Z,64.60
2022-07-25T18:07:15.788Z,65.00
2022-07-25T18:09:42.669Z,65.20
2022-07-25T18:12:09.476Z,65.30
2022-07-25T18:14:36.383Z,65.30
2022-07-25T18:17:03.527Z,65.50
2022-07-25T18:19:30.381Z,65.50
2022-07-25T18:21:57.130Z,65.40
2022-07-25T18:24:29.089Z,65.50
2022-07-25T18:26:59.144Z,65.70
2022-07-25T18:29:26.224Z,65.90
2022-07-25T18:31:52.966Z,66.10
2022-07-25T18:34:19.782Z,67.10
2022-07-25T18:36:46.671Z,66.50
2022-07-25T18:39:13.910Z,66.90
2022-07-25T18:41:40.615Z,67.00
2022-07-25T18:44:07.821Z,67.00
2022-07-25T18:46:35.027Z,67.20
2022-07-25T18:49:04.194Z,67.10
2022-07-25T18:51:31.095Z,67.40
2022-07-25T18:53:57.902Z,67.50
2022-07-25T18:56:25.122Z,67.60
2022-07-25T18:58:52.825Z,67.80
2022-07-25T19:01:20.410Z,67.90
2022-07-25T19:03:47.571Z,68.20
2022-07-25T19:06:15.027Z,68.50
2022-07-25T19:08:44.164Z,68.60
2022-07-25T19:11:11.165Z,68.90
2022-07-25T19:13:49.562Z,69.00
2022-07-25T19:16:19.012Z,69.30
2022-07-25T19:18:46.908Z,69.50
2022-07-25T19:21:14.344Z,69.60
2022-07-25T19:23:41.207Z,69.70
2022-07-25T19:26:08.136Z,69.90
2022-07-25T19:28:35.982Z,70.10
2022-07-25T19:31:04.270Z,70.40
2022-07-25T19:33:35.963Z,70.50
2022-07-25T19:36:04.348Z,70.60
2022-07-25T19:38:31.583Z,70.70
2022-07-25T19:40:58.985Z,71.00
2022-07-25T19:43:25.863Z,71.40
2022-07-25T19:45:52.655Z,71.40
2022-07-25T19:48:23.605Z,71.60
2022-07-25T19:50:52.051Z,71.70
2022-07-25T19:53:19.133Z,71.80
2022-07-25T19:55:46.010Z,71.90
2022-07-25T19:58:12.960Z,72.00
2022-07-25T20:00:39.909Z,72.00
2022-07-25T20:03:06.939Z,72.00
2022-07-25T20:05:34.206Z,72.10
2022-07-25T20:08:01.142Z,72.20
2022-07-25T20:10:28.333Z,72.30
2022-07-25T20:12:58.231Z,72.30
2022-07-25T20:15:29.763Z,72.50
2022-07-25T20:17:56.976Z,72.60
2022-07-25T20:20:24.252Z,72.90
2022-07-25T20:22:52.158Z,73.00
2022-07-25T20:25:20.232Z,73.10
2022-07-25T20:27:50.061Z,73.30
2022-07-25T20:30:17.307Z,73.50
2022-07-25T20:32:44.471Z,73.80
2022-07-25T20:35:11.479Z,74.00
2022-07-25T20:37:38.224Z,74.20
2022-07-25T20:40:06.774Z,74.40
2022-07-25T20:42:37.434Z,74.50
2022-07-25T20:45:05.854Z,74.70
2022-07-25T20:47:32.687Z,74.80
2022-07-25T20:49:59.689Z,74.80
2022-07-25T20:52:28.083Z,74.90
2022-07-25T20:54:54.804Z,74.90
2022-07-25T20:57:22.464Z,75.00
2022-07-25T20:59:49.282Z,74.90
2022-07-25T21:02:17.403Z,74.80
2022-07-25T21:04:44.842Z,75.50
2022-07-25T21:07:12.388Z,75.90
2022-07-25T21:09:40.373Z,75.00
2022-07-25T21:12:07.579Z,74.80
2022-07-25T21:14:34.708Z,74.70
2022-07-25T21:17:01.672Z,74.70
2022-07-25T21:19:29.759Z,74.70
2022-07-25T21:21:56.956Z,74.80
2022-07-25T21:24:24.037Z,74.80
2022-07-25T21:26:51.596Z,74.80
2022-07-25T21:29:18.391Z,74.70
2022-07-25T21:31:45.545Z,74.70
2022-07-25T21:34:12.277Z,74.90
2022-07-25T21:36:39.097Z,75.10
2022-07-25T21:39:06.043Z,75.30
2022-07-25T21:41:32.948Z,75.50
2022-07-25T21:44:00.640Z,75.70
2022-07-25T21:46:27.667Z,75.80
2022-07-25T21:49:13.812Z,76.10
2022-07-25T21:51:41.338Z,76.20
2022-07-25T21:54:09.770Z,76.30
2022-07-25T21:56:36.550Z,76.30
2022-07-25T21:59:03.487Z,76.30
2022-07-25T22:01:30.380Z,76.20
2022-07-25T22:03:57.322Z,76.00
2022-07-25T22:06:24.086Z,75.90
2022-07-25T22:08:50.987Z,75.90
2022-07-25T22:11:38.382Z,75.80
2022-07-25T22:14:04.439Z,75.70
2022-07-25T22:16:31.321Z,75.20
2022-07-25T22:18:58.245Z,75.20
2022-07-25T22:21:25.019Z,75.00
2022-07-25T22:23:51.711Z,74.80
2022-07-25T22:26:20.220Z,74.80
2022-07-25T22:28:48.204Z,74.70
2022-07-25T22:31:15.216Z,74.70
2022-07-25T22:33:42.353Z,74.60
2022-07-25T22:36:09.481Z,74.40
2022-07-25T22:38:36.599Z,74.30
2022-07-25T22:41:03.454Z,74.10
2022-07-25T22:43:53.141Z,74.00
2022-07-25T22:46:16.995Z,74.00
2022-07-25T22:48:43.860Z,74.00
2022-07-25T22:51:10.617Z,74.00
2022-07-25T22:53:37.436Z,74.10
2022-07-25T22:56:04.467Z,74.10
2022-07-25T22:58:31.215Z,73.90
2022-07-25T23:00:57.909Z,74.10
2022-07-25T23:03:24.724Z,74.20
2022-07-25T23:05:57.457Z,74.20
2022-07-25T23:08:24.254Z,74.20
2022-07-25T23:10:51.000Z,74.20
2022-07-25T23:13:17.728Z,74.30
2022-07-25T23:15:50.121Z,74.30
2022-07-25T23:18:18.448Z,74.30
2022-07-25T23:20:45.136Z,74.40
2022-07-25T23:23:12.966Z,74.40
2022-07-25T23:25:39.919Z,74.50
2022-07-25T23:28:06.933Z,74.50
2022-07-25T23:30:38.200Z,74.60
2022-07-25T23:33:07.786Z,74.70
2022-07-25T23:35:35.147Z,74.80
2022-07-25T23:38:02.493Z,74.70
2022-07-25T23:40:29.668Z,74.70
2022-07-25T23:42:56.480Z,74.70
2022-07-25T23:45:26.354Z,74.80
2022-07-25T23:47:55.524Z,74.70
2022-07-25T23:50:22.721Z,74.80
2022-07-25T23:52:49.547Z,75.00
2022-07-25T23:55:16.318Z,75.10
2022-07-25T23:57:43.791Z,75.20
